• Join FlightAware (Why Join?)
  • Login
  • US Flag 
01:16AM EDT


 

Airport Tracker/Info


-or-


 

Live Flight TrackerFlight Track Log ✈ N960DL ✈ 06-May-2013 ✈ KLGA - KMSP

Flight Track Log - Related Links

Times and Time Zones

All times are in EDT time to prevent confusion due to time zone crossing. See the N960DL flight status page for this flight to view local times or setup timezone preferences in your user account.

Time Position Orientation Groundspeed Altitude Reporting Facility
EDT Latitude Longitude Course Direction KTS MPH feet Rate Location/Type
06:29AM 40.7333 -73.8167 312° West 204 235 2,500  Level New York TRACON
06:30AM 40.9485 -74.2636 304° West  Level FlightAware Approximate
06:30AM 40.7667 -73.7667 49° Northeast 227 261 4,800  Level New York TRACON
06:31AM 41.0103 -74.3980 299° West  Level FlightAware Approximate
06:31AM 40.8333 -73.7167 30° Northeast 275 316 6,800  Level New York TRACON
06:32AM 41.0667 -74.5364 270° West  Level FlightAware Approximate
06:32AM 40.9167 -73.6667 24° Northeast 287 330 9,500  Level New York TRACON
06:33AM 41.1212 -74.6712 323° Northwest  Level FlightAware Approximate
06:33AM 40.9833 -73.6500 11° North 318 366 11,200  Level New York TRACON
06:33AM 41.0333 -73.7500 304° West 432 497 12,300 1,980 Climbing New York TRACON
06:34AM 41.1831 -74.7997 312° West  Level FlightAware Approximate
06:36AM 41.0750 -74.1069 279° West 415 478 17,800  Level New York Center
06:37AM 41.1167 -74.2494 291° West 425 489 18,000 60 Climbing New York Center
06:38AM 41.1564 -74.3811 292° West 430 495 18,000  Level New York Center
06:39AM 41.2033 -74.5436 291° West 430 495 18,000 780 Level New York Center
06:40AM 41.2408 -74.6725 291° West 430 495 19,600 1,620 Climbing New York Center
06:41AM 41.2858 -74.8214 292° West 435 501 21,300 1,620 Climbing New York Center
06:42AM 41.3283 -74.9786 290° West 441 507 22,800 1,440 Climbing New York Center
06:43AM 41.3767 -75.1364 292° West 452 520 24,300 1,740 Climbing New York Center
06:44AM 41.4208 -75.2944 290° West 458 527 26,300 1,860 Climbing New York Center
06:45AM 41.4644 -75.4522 290° West 458 527 28,100 1,560 Climbing New York Center
06:46AM 41.5086 -75.6022 292° West 453 521 29,500 1,380 Climbing New York Center
06:47AM 41.5542 -75.7553 292° West 453 521 31,000 1,140 Climbing New York Center
06:48AM 41.5958 -75.9053 290° West 443 510 31,900 720 Climbing New York Center
06:49AM 41.6392 -76.0586 291° West 438 504 32,500 600 Climbing New York Center
06:50AM 41.6822 -76.2092 291° West 438 504 33,100 540 Climbing New York Center
06:51AM 41.7272 -76.3628 291° West 438 504 33,600 420 Climbing New York Center
06:52AM 41.7714 -76.5278 290° West 438 504 34,000 120 Climbing New York Center
06:54AM 41.8572 -76.8358 291° West 427 491 34,000  Level Cleveland Center
06:55AM 41.8994 -76.9869 291° West 432 497 34,000  Level Cleveland Center
06:56AM 41.9397 -77.1411 289° West 438 504 34,000  Level Cleveland Center
06:57AM 41.9817 -77.2953 290° West 438 504 34,000  Level Cleveland Center
06:58AM 42.0214 -77.4469 289° West 438 504 34,000  Level Cleveland Center
06:59AM 42.0608 -77.5989 289° West 438 504 34,000  Level Cleveland Center
07:00AM 42.1003 -77.7539 289° West 438 504 34,000  Level Cleveland Center
07:01AM 42.1414 -77.9061 290° West 438 504 34,000  Level Cleveland Center
07:02AM 42.1803 -78.0586 289° West 438 504 34,000  Level Cleveland Center
07:03AM 42.2211 -78.2111 290° West 438 504 34,000  Level Cleveland Center
07:04AM 42.2597 -78.3639 289° West 438 504 34,000  Level Cleveland Center
07:05AM 42.3000 -78.5197 289° West 438 504 34,000  Level Cleveland Center
07:06AM 42.3422 -78.6731 290° West 438 504 34,000  Level Cleveland Center
07:07AM 42.3822 -78.8264 289° West 438 504 34,000  Level Cleveland Center
07:08AM 42.4222 -78.9969 288° West 438 504 34,000  Level Cleveland Center
07:09AM 42.4617 -79.1339 291° West 438 504 34,000  Level Cleveland Center
07:10AM 42.4989 -79.2933 288° West 438 504 34,000  Level Cleveland Center
07:11AM 42.5442 -79.4419 293° West 438 504 34,000  Level Cleveland Center
07:12AM 42.5914 -79.5961 293° West 438 504 34,000  Level Cleveland Center
07:13AM 42.6386 -79.7450 293° West 438 504 34,000  Level Cleveland Center
07:14AM 42.6833 -79.8997 292° West 438 504 34,000  Level Cleveland Center
07:15AM 42.7300 -80.0689 291° West 438 504 34,000  Level Cleveland Center
07:16AM 42.7744 -80.2267 291° West 438 504 34,000  Level Cleveland Center
07:17AM 42.8164 -80.3822 290° West 438 504 34,000  Level Cleveland Center
07:18AM 42.8625 -80.5378 292° West 438 504 34,000  Level Cleveland Center
07:19AM 42.9167 -80.6833 297° West 440 506 34,000  Level Toronto Center
07:20AM 42.9333 -80.8333 279° West 440 506 34,000  Level Toronto Center
07:21AM 42.9833 -81.0000 292° West 440 506 34,000  Level Toronto Center
07:22AM 43.0333 -81.1667 292° West 440 506 34,000  Level Toronto Center
07:23AM 43.0500 -81.3167 279° West 440 506 34,000  Level Toronto Center
07:24AM 43.0833 -81.4833 285° West 440 506 34,000  Level Toronto Center
07:25AM 43.1000 -81.6667 277° West 440 506 34,000  Level Toronto Center
07:26AM 43.1333 -81.8333 285° West 440 506 34,000  Level Toronto Center
07:27AM 43.1333 -81.9833 270° West 440 506 34,000  Level Toronto Center
07:28AM 43.1667 -82.1500 285° West 440 506 34,000  Level Toronto Center
07:29AM 43.1833 -82.3000 279° West 440 506 34,000  Level Toronto Center
07:30AM 43.2167 -82.5000 283° West 440 506 34,000  Level Toronto Center
07:31AM 43.2333 -82.6500 279° West 440 506 34,000  Level Toronto Center
07:32AM 43.2611 -82.7383 293° West 448 516 34,000  Level Cleveland Center
07:33AM 43.3019 -82.8939 290° West 442 509 34,000  Level Cleveland Center
07:34AM 43.3444 -83.0553 290° West 442 509 34,000  Level Cleveland Center
07:35AM 43.3847 -83.2169 289° West 448 516 34,000  Level Cleveland Center
07:37AM 43.4767 -83.5606 290° West 442 509 34,000  Level Minneapolis Center
07:37AM 43.4833 -83.6167 279° West 440 506 34,000  Level Toronto Center
07:38AM 43.5167 -83.7667 287° West 440 506 34,000  Level Toronto Center
07:39AM 43.5586 -83.8800 297° West 443 510 34,000  Level Minneapolis Center
07:40AM 43.5969 -84.0400 288° West 442 509 34,000  Level Minneapolis Center
07:41AM 43.6381 -84.1994 290° West 443 510 34,000  Level Minneapolis Center
07:42AM 43.6778 -84.3592 289° West 442 509 34,000  Level Minneapolis Center
07:43AM 43.7183 -84.5192 289° West 442 509 34,000  Level Minneapolis Center
07:44AM 43.7569 -84.6803 288° West 444 511 34,000  Level Minneapolis Center
07:45AM 43.7928 -84.8422 287° West 443 510 34,000  Level Minneapolis Center
07:46AM 43.8250 -85.0072 285° West 445 512 34,000  Level Minneapolis Center
07:47AM 43.8564 -85.1700 285° West 442 509 34,000  Level Minneapolis Center
07:48AM 43.8889 -85.3336 285° West 442 509 34,000  Level Minneapolis Center
07:49AM 43.9286 -85.5314 286° West 445 512 34,000  Level Minneapolis Center
07:50AM 43.9592 -85.6953 285° West 445 512 34,000  Level Minneapolis Center
07:51AM 43.9972 -85.8894 285° West 440 506 34,000  Level Minneapolis Center
07:52AM 44.0278 -86.0517 285° West 438 504 34,000  Level Minneapolis Center
07:53AM 44.0597 -86.2178 285° West 445 512 34,000  Level Minneapolis Center
07:54AM 44.0900 -86.3822 284° West 444 511 34,000  Level Minneapolis Center
07:55AM 44.1203 -86.5469 284° West 443 510 34,000  Level Minneapolis Center
07:56AM 44.1517 -86.7192 284° West 439 505 34,000  Level Minneapolis Center
07:57AM 44.1806 -86.8850 284° West 437 503 34,000  Level Minneapolis Center
07:58AM 44.2106 -87.0511 284° West 440 506 34,000  Level Minneapolis Center
07:59AM 44.2417 -87.2289 284° West 438 504 34,000  Level Minneapolis Center
08:00AM 44.2703 -87.3944 284° West 439 505 34,000  Level Minneapolis Center
08:01AM 44.2972 -87.5592 283° West 438 504 34,000  Level Minneapolis Center
08:02AM 44.3256 -87.7236 284° West 436 502 34,000  Level Minneapolis Center
08:03AM 44.3531 -87.8883 283° West 435 501 34,000  Level Minneapolis Center
08:05AM 44.3853 -88.0859 283° West  Level FlightAware Approximate
08:06AM 44.4181 -88.2736 283° West 436 502 34,000  Level Minneapolis Center
08:07AM 44.4456 -88.4364 283° West 432 497 34,000  Level Minneapolis Center
08:09AM 44.4989 -88.7644 283° West 434 499 34,000  Level Minneapolis Center
08:10AM 44.5247 -88.9303 282° West 434 499 34,000 -60 Level Minneapolis Center
08:12AM 44.5686 -89.2264 282° West  Level FlightAware Approximate
08:13AM 44.6019 -89.4275 282° West 435 501 33,800  Level Minneapolis Center
08:14AM 44.6267 -89.5939 282° West 435 501 32,100 -600 Descending Minneapolis Center
08:16AM 44.6828 -89.9589 282° West 441 507 32,000 -60 Descending Minneapolis Center
08:18AM 44.7140 -90.2403 282° West  Level FlightAware Approximate
08:20AM 44.7783 -90.6319 286° West 440 506 32,000  Level Minneapolis Center
08:21AM 44.8025 -90.8006 281° West 441 507 32,000  Level Minneapolis Center
08:22AM 44.8311 -90.9678 284° West 441 507 32,000 -1,080 Level Minneapolis Center
08:23AM 44.8583 -91.1339 283° West 439 505 29,900 -3,180 Descending Minneapolis Center
08:24AM 44.8911 -91.3350 283° West 441 507 25,500 -2,940 Descending Minneapolis Center
08:25AM 44.8717 -91.3251 286° West  Level FlightAware Approximate
08:26AM 44.9469 -91.6692 283° West 437 503 21,000  Level Minneapolis Center
08:27AM 44.9736 -91.8267 284° West 423 487 18,400 -2,520 Descending Minneapolis Center
08:28AM 45.0003 -91.9825 284° West 412 474 15,900 -2,580 Descending Minneapolis Center
08:29AM 45.0256 -92.1331 283° West 398 458 13,200 -2,400 Descending Minneapolis Center
08:30AM 45.0469 -92.2781 282° West 381 438 11,100 -1,080 Descending Minneapolis Center
08:31AM 45.0286 -92.4219 260° West 376 433 11,000 -420 Descending Minneapolis Center
08:33AM 44.9617 -92.6792 250° West 288 331 9,900 -660 Descending Minneapolis Center
08:34AM 44.9022 -92.7542 222° Southwest 287 330 9,000 -480 Descending Minneapolis Center
08:35AM 44.8436 -92.8311 223° Southwest 287 330 9,000 -600 Level Minneapolis Center
08:36AM 44.7678 -92.8492 190° South 279 321 7,800 -1,080 Descending Minneapolis Center
08:37AM 44.7283 -92.9014 223° Southwest 233 268 6,800 -1,260 Descending Minneapolis Center
08:38AM 44.7664 -92.9558 315° West 203 234 5,000 -1,560 Descending Minneapolis Center
08:39AM 44.8064 -93.0481 301° West 200 230 3,300 -1,140 Descending Minneapolis Center
08:41AM 44.8333 -93.1333 294° West 143 165 2,100 -720 Descending Minneapolis TRACON
08:42AM 44.8533 -93.1550 322° Northwest 141 162 1,600 -600 Descending Minneapolis Center